Time;durP1;ratioP1;P1;durP2;ratioP2;P2;SDS_P1;SDS_P2;PMS_P1;PMS_P2;Temp;Humidity;BMP_temperature;BMP_pressure;BME280_temperature;BME280_humidity;BME280_pressure;Samples;Min_cycle;Max_cycle;Signal;HPM_P1;HPM_P2
2021/07/04 05:56:27;;;;;;;3.28;2.20;;;26.80;99.90;;;;;;4968297;28;20241;-84
2021/07/04 05:58:53;;;;;;;2.78;2.08;;;26.40;99.90;;;;;;4963071;28;20237;-85
2021/07/04 06:01:20;;;;;;;3.30;2.03;;;26.10;99.90;;;;;;4968086;28;20248;-82
2021/07/04 06:03:47;;;;;;;3.03;2.05;;;25.90;99.90;;;;;;4971982;28;20670;-85
2021/07/04 06:06:14;;;;;;;2.33;1.60;;;26.10;99.90;;;;;;4969846;28;20316;-80
2021/07/04 06:08:40;;;;;;;2.00;1.67;;;26.60;99.90;;;;;;4968453;28;20208;-82
2021/07/04 06:11:07;;;;;;;1.60;1.40;;;26.90;99.90;;;;;;4972080;28;20227;-78
2021/07/04 06:13:35;;;;;;;1.65;1.55;;;26.90;99.90;;;;;;4969575;28;20204;-83
2021/07/04 06:16:02;;;;;;;2.15;1.40;;;27.00;99.90;;;;;;4965746;28;20238;-81
2021/07/04 06:18:29;;;;;;;2.30;1.50;;;27.30;99.90;;;;;;4966758;28;20218;-79
2021/07/04 06:20:56;;;;;;;1.80;1.27;;;27.60;99.90;;;;;;4965862;28;20231;-79
2021/07/04 06:23:23;;;;;;;2.78;1.40;;;28.00;99.90;;;;;;4967378;28;20211;-77
2021/07/04 06:25:50;;;;;;;1.45;1.20;;;28.20;99.90;;;;;;4970342;28;20207;-78
2021/07/04 06:28:17;;;;;;;1.85;1.42;;;28.80;99.90;;;;;;4970679;28;20210;-79
2021/07/04 06:30:45;;;;;;;2.97;1.50;;;29.30;99.90;;;;;;4972344;28;20282;-77
2021/07/04 06:33:12;;;;;;;1.50;1.15;;;29.40;99.90;;;;;;4967215;28;20212;-76
2021/07/04 06:35:39;;;;;;;1.70;1.50;;;29.10;99.90;;;;;;4965856;28;20242;-77
2021/07/04 06:38:06;;;;;;;2.70;1.65;;;28.80;99.90;;;;;;4964901;28;20211;-76
2021/07/04 06:40:33;;;;;;;1.23;1.00;;;28.40;99.90;;;;;;4973439;28;20207;-77
2021/07/04 06:43:00;;;;;;;3.90;1.50;;;28.10;99.90;;;;;;4964867;28;20214;-80
2021/07/04 06:45:27;;;;;;;2.80;1.30;;;27.60;99.90;;;;;;4973654;28;20203;-81
2021/07/04 06:47:55;;;;;;;1.60;1.08;;;27.20;99.90;;;;;;4966362;28;20207;-84
2021/07/04 06:50:23;;;;;;;1.80;1.20;;;27.10;99.90;;;;;;4971940;28;20219;-79
2021/07/04 06:52:50;;;;;;;1.13;1.02;;;26.80;99.90;;;;;;4968453;28;20217;-79
2021/07/04 06:55:18;;;;;;;1.35;1.10;;;26.70;99.90;;;;;;4972344;28;20564;-82
2021/07/04 06:57:45;;;;;;;1.60;1.30;;;26.60;99.90;;;;;;4967177;28;20214;-83
2021/07/04 07:00:14;;;;;;;2.45;1.20;;;27.00;99.90;;;;;;4965282;28;20215;-84
2021/07/04 07:02:43;;;;;;;1.45;1.05;;;27.10;99.90;;;;;;4971049;28;20229;-83
2021/07/04 07:05:12;;;;;;;1.63;1.02;;;26.80;99.90;;;;;;4972094;28;20204;-82
2021/07/04 07:07:40;;;;;;;1.10;1.00;;;26.80;99.90;;;;;;4966401;28;20204;-82
2021/07/04 07:10:08;;;;;;;1.35;0.82;;;26.60;99.90;;;;;;4965841;28;20200;-82
2021/07/04 07:12:35;;;;;;;0.98;0.80;;;26.30;99.90;;;;;;4957605;28;20228;-83
2021/07/04 07:15:02;;;;;;;0.98;0.85;;;26.20;99.90;;;;;;4954758;29;20224;-81
2021/07/04 07:17:29;;;;;;;1.00;0.77;;;26.20;99.90;;;;;;4955378;29;20204;-82
2021/07/04 07:19:56;;;;;;;1.05;0.82;;;25.90;99.90;;;;;;4955855;29;20208;-83
2021/07/04 07:22:24;;;;;;;1.50;1.02;;;26.40;99.90;;;;;;4956163;28;20232;-81
2021/07/04 07:24:51;;;;;;;0.88;0.75;;;27.30;99.90;;;;;;4956056;29;20204;-82
2021/07/04 07:27:18;;;;;;;1.27;0.90;;;26.60;99.90;;;;;;4955791;29;20204;-82
2021/07/04 07:29:45;;;;;;;1.10;0.90;;;26.60;99.90;;;;;;4955648;29;20208;-81
2021/07/04 07:32:13;;;;;;;2.58;0.98;;;26.60;99.90;;;;;;4956053;28;20238;-82
2021/07/04 07:34:40;;;;;;;0.90;0.70;;;26.30;99.90;;;;;;4955841;29;20211;-81
